Time;durP1;ratioP1;P1;durP2;ratioP2;P2;SDS_P1;SDS_P2;PMS_P1;PMS_P2;Temp;Humidity;BMP_temperature;BMP_pressure;BME280_temperature;BME280_humidity;BME280_pressure;Samples;Min_cycle;Max_cycle;Signal;HPM_P1;HPM_P2
2022/10/18 00:01:37;;;;;;;169.10;16.55;;;17.60;99.90;;;;;;5036377;28;20033;-74
2022/10/18 00:04:05;;;;;;;43.95;15.95;;;17.60;99.90;;;;;;5036583;28;20059;-76
2022/10/18 00:06:31;;;;;;;35.17;13.73;;;17.70;99.90;;;;;;5036366;28;20029;-76
2022/10/18 00:08:57;;;;;;;15.90;14.40;;;17.70;99.90;;;;;;5035857;28;20051;-75
2022/10/18 00:11:23;;;;;;;87.50;18.73;;;17.70;99.90;;;;;;5036241;28;20031;-75
2022/10/18 00:13:49;;;;;;;32.20;17.02;;;17.60;99.90;;;;;;5035975;28;20473;-76
2022/10/18 00:16:16;;;;;;;59.50;17.38;;;17.70;99.90;;;;;;5036187;28;20029;-75
2022/10/18 00:18:43;;;;;;;17.45;15.63;;;17.60;99.90;;;;;;5034531;28;20049;-75
2022/10/18 00:21:17;;;;;;;17.25;15.43;;;17.70;99.90;;;;;;5036037;28;20029;-75
2022/10/18 00:23:43;;;;;;;21.92;16.33;;;17.70;99.90;;;;;;5035863;28;20018;-76
2022/10/18 00:26:11;;;;;;;17.95;15.27;;;17.70;99.90;;;;;;5036047;28;20108;-75
2022/10/18 00:28:37;;;;;;;22.80;16.13;;;17.70;99.90;;;;;;5035534;28;20049;-75
2022/10/18 00:31:24;;;;;;;21.25;16.13;;;17.70;99.90;;;;;;5035672;28;20091;-75
2022/10/18 00:33:55;;;;;;;17.05;15.10;;;17.70;99.90;;;;;;5035639;28;20385;-75
2022/10/18 00:36:21;;;;;;;23.15;16.42;;;17.70;99.90;;;;;;5035935;28;20026;-75
2022/10/18 00:38:48;;;;;;;26.92;16.15;;;17.70;99.90;;;;;;5035827;28;20044;-75
2022/10/18 00:41:16;;;;;;;21.58;15.52;;;17.80;99.90;;;;;;5035793;28;20052;-75
2022/10/18 00:43:57;;;;;;;58.10;15.60;;;17.70;99.90;;;;;;5035871;28;20096;-75
2022/10/18 00:46:25;;;;;;;28.13;15.13;;;17.70;99.90;;;;;;5036121;28;20108;-75
2022/10/18 00:48:53;;;;;;;22.90;16.30;;;17.70;99.90;;;;;;5035728;28;20022;-75
2022/10/18 00:51:20;;;;;;;23.83;14.75;;;17.80;99.90;;;;;;5035918;28;20101;-75
2022/10/18 00:53:48;;;;;;;24.05;15.35;;;17.80;99.90;;;;;;5035702;28;20087;-75
2022/10/18 00:56:14;;;;;;;20.45;15.30;;;17.80;99.90;;;;;;5037256;28;20026;-75
2022/10/18 00:58:41;;;;;;;56.03;15.38;;;17.80;99.90;;;;;;5038929;28;20106;-76
2022/10/18 01:01:07;;;;;;;84.70;16.08;;;17.80;99.90;;;;;;5035642;28;20144;-76
2022/10/18 01:03:34;;;;;;;17.25;15.45;;;17.80;99.90;;;;;;5034975;28;20029;-76
2022/10/18 01:06:00;;;;;;;26.38;16.52;;;17.80;99.90;;;;;;5035328;28;20095;-76
2022/10/18 01:08:35;;;;;;;21.42;16.83;;;17.70;99.90;;;;;;5034738;28;20104;-76
2022/10/18 01:11:19;;;;;;;38.30;14.63;;;17.70;99.90;;;;;;5035254;28;20052;-76
2022/10/18 01:14:01;;;;;;;76.55;17.38;;;17.80;99.90;;;;;;5034869;28;20139;-76
2022/10/18 01:16:32;;;;;;;146.63;18.13;;;17.80;99.90;;;;;;5035112;28;20113;-76
2022/10/18 01:20:01;;;;;;;85.88;17.85;;;17.70;99.90;;;;;;5034996;28;20105;-76
2022/10/18 01:22:32;;;;;;;23.40;15.70;;;17.70;99.90;;;;;;5032606;28;20030;-75
2022/10/18 01:25:51;;;;;;;58.20;16.48;;;17.70;99.90;;;;;;5032550;28;20034;-75
2022/10/18 01:28:58;;;;;;;41.22;16.92;;;17.70;99.90;;;;;;4973226;28;20061;-75
2022/10/18 01:31:48;;;;;;;105.68;17.10;;;17.70;99.90;;;;;;4990585;28;20037;-76
2022/10/18 01:34:17;;;;;;;65.22;16.92;;;17.70;99.90;;;;;;5034763;28;20022;-76
2022/10/18 01:36:47;;;;;;;41.55;17.60;;;17.60;99.90;;;;;;5034668;28;20108;-76
2022/10/18 01:39:24;;;;;;;19.65;16.13;;;17.60;99.90;;;;;;5034810;28;20496;-76
2022/10/18 01:41:52;;;;;;;20.90;15.52;;;17.60;99.90;;;;;;5034496;28;20033;-76
2022/10/18 01:44:23;;;;;;;32.38;17.33;;;17.60;99.90;;;;;;5034552;28;20119;-76
2022/10/18 01:46:51;;;;;;;21.63;15.32;;;17.60;99.90;;;;;;5034493;28;20033;-76
2022/10/18 01:49:17;;;;;;;24.55;16.75;;;17.70;99.90;;;;;;5034266;28;20057;-76
2022/10/18 01:51:43;;;;;;;21.42;17.45;;;17.60;99.90;;;;;;5034545;28;20025;-76
2022/10/18 01:54:11;;;;;;;64.45;17.85;;;17.60;99.90;;;;;;5034717;28;20025;-75
2022/10/18 01:57:00;;;;;;;33.72;16.00;;;17.60;99.90;;;;;;5034244;28;20025;-76
2022/10/18 01:59:58;;;;;;;21.52;17.38;;;17.60;99.90;;;;;;5034144;28;20027;-76
2022/10/18 02:02:30;;;;;;;26.75;18.40;;;17.70;99.90;;;;;;5032735;28;20623;-76
2022/10/18 02:04:56;;;;;;;31.63;19.95;;;17.60;99.90;;;;;;5034172;28;20037;-76
2022/10/18 02:07:30;;;;;;;27.58;19.73;;;17.70;99.90;;;;;;5034078;28;20028;-75
2022/10/18 02:10:02;;;;;;;32.22;20.38;;;17.60;99.90;;;;;;5033654;28;20540;-75
2022/10/18 02:12:31;;;;;;;29.45;18.55;;;17.60;99.90;;;;;;5033917;28;20029;-75
2022/10/18 02:14:57;;;;;;;24.05;19.00;;;17.60;99.90;;;;;;5033946;28;20111;-75
2022/10/18 02:17:27;;;;;;;20.25;17.15;;;17.60;99.90;;;;;;5033897;28;20080;-75
2022/10/18 02:19:54;;;;;;;28.75;16.25;;;17.60;99.90;;;;;;5033774;28;20025;-75
2022/10/18 02:22:25;;;;;;;17.02;14.07;;;17.60;99.90;;;;;;5033531;28;20029;-75
2022/10/18 02:24:54;;;;;;;22.25;17.00;;;17.60;99.90;;;;;;5034060;28;20045;-75
2022/10/18 02:27:20;;;;;;;19.50;15.80;;;17.60;99.90;;;;;;5033608;28;20041;-75
2022/10/18 02:29:49;;;;;;;30.00;19.83;;;17.60;99.90;;;;;;5033555;28;20022;-75
2022/10/18 02:32:37;;;;;;;29.50;20.25;;;17.60;99.90;;;;;;5033010;28;20030;-75
2022/10/18 02:35:20;;;;;;;24.40;19.33;;;17.60;99.90;;;;;;5033735;28;20057;-75
2022/10/18 02:37:49;;;;;;;26.60;19.17;;;17.60;99.90;;;;;;5033581;28;20037;-74
2022/10/18 02:40:18;;;;;;;25.27;18.77;;;17.60;99.90;;;;;;5033368;28;20051;-75
2022/10/18 02:42:49;;;;;;;24.77;19.70;;;17.60;99.90;;;;;;5032830;28;20109;-75
2022/10/18 02:45:16;;;;;;;22.63;17.35;;;17.50;99.90;;;;;;5033585;28;20034;-75
2022/10/18 02:47:42;;;;;;;24.50;17.95;;;17.50;99.90;;;;;;5033548;28;20100;-75
2022/10/18 02:50:08;;;;;;;23.92;18.58;;;17.60;99.90;;;;;;5033365;28;20033;-74
2022/10/18 02:52:36;;;;;;;23.98;17.58;;;17.50;99.90;;;;;;5033651;28;20024;-75
2022/10/18 02:55:03;;;;;;;23.58;16.35;;;17.50;99.90;;;;;;5033385;28;20021;-75
2022/10/18 02:57:29;;;;;;;16.65;13.40;;;17.50;99.90;;;;;;5033262;28;20109;-75
2022/10/18 02:59:55;;;;;;;18.33;14.88;;;17.50;99.90;;;;;;5033145;28;20030;-75
2022/10/18 03:02:20;;;;;;;24.42;17.92;;;17.50;99.90;;;;;;5032827;28;20030;-74
2022/10/18 03:04:46;;;;;;;22.85;16.98;;;17.40;99.90;;;;;;5033248;28;20041;-75
2022/10/18 03:07:11;;;;;;;22.75;16.63;;;17.40;99.90;;;;;;5032983;28;20025;-76
2022/10/18 03:09:37;;;;;;;22.08;15.60;;;17.40;99.90;;;;;;5033360;28;20030;-76
2022/10/18 03:12:03;;;;;;;21.88;16.25;;;17.50;99.90;;;;;;5033170;28;20026;-76
2022/10/18 03:14:28;;;;;;;17.08;14.40;;;17.50;99.90;;;;;;5033061;28;20574;-76
2022/10/18 03:16:54;;;;;;;18.75;14.55;;;17.50;99.90;;;;;;5033035;28;20516;-75
2022/10/18 03:19:20;;;;;;;16.30;13.52;;;17.50;99.90;;;;;;5033154;28;20044;-75
2022/10/18 03:21:45;;;;;;;11.52;10.30;;;17.50;99.90;;;;;;5032894;28;20222;-76
2022/10/18 03:24:11;;;;;;;19.00;14.10;;;17.50;99.90;;;;;;5033097;28;20043;-76
2022/10/18 03:26:39;;;;;;;18.48;14.80;;;17.50;99.90;;;;;;5032793;28;20022;-76
2022/10/18 03:29:05;;;;;;;19.85;14.77;;;17.50;99.90;;;;;;5032687;28;20080;-75
2022/10/18 03:31:31;;;;;;;17.17;14.18;;;17.50;99.90;;;;;;5032827;28;20446;-75
2022/10/18 03:33:56;;;;;;;18.15;13.45;;;17.40;99.90;;;;;;5033064;28;20025;-75
2022/10/18 03:36:22;;;;;;;13.57;12.02;;;17.40;99.90;;;;;;5033210;28;20112;-75
2022/10/18 03:38:48;;;;;;;35.03;13.43;;;17.50;99.90;;;;;;5032948;28;20469;-75
2022/10/18 03:41:13;;;;;;;21.42;13.40;;;17.40;99.90;;;;;;5031331;28;20064;-75
2022/10/18 03:43:39;;;;;;;15.57;13.25;;;17.40;99.90;;;;;;5032827;28;20143;-75
2022/10/18 03:46:05;;;;;;;16.27;13.00;;;17.40;99.90;;;;;;5033068;28;20463;-74
2022/10/18 03:48:31;;;;;;;16.40;12.98;;;17.30;99.90;;;;;;5033157;28;20025;-75
2022/10/18 03:50:59;;;;;;;17.65;12.27;;;17.30;99.90;;;;;;5032883;28;20477;-76
2022/10/18 03:53:25;;;;;;;15.25;12.55;;;17.30;99.90;;;;;;5034749;28;20026;-74
2022/10/18 03:55:54;;;;;;;21.75;15.50;;;17.30;99.90;;;;;;5036606;28;20432;-75
2022/10/18 03:58:21;;;;;;;14.75;12.75;;;17.30;99.90;;;;;;5036313;28;20491;-75
2022/10/18 04:00:51;;;;;;;13.85;11.15;;;17.30;99.90;;;;;;5036137;28;20024;-75
2022/10/18 04:03:21;;;;;;;16.08;11.55;;;17.30;99.90;;;;;;5036277;28;20040;-76
2022/10/18 04:05:47;;;;;;;18.95;13.50;;;17.30;99.90;;;;;;5035995;28;20404;-75
2022/10/18 04:08:13;;;;;;;19.75;13.18;;;17.30;99.90;;;;;;5036439;28;20028;-75
2022/10/18 04:10:39;;;;;;;15.18;12.10;;;17.30;99.90;;;;;;5036049;28;20025;-75
2022/10/18 04:13:05;;;;;;;15.00;12.63;;;17.30;99.90;;;;;;5036003;28;20026;-75
2022/10/18 04:15:31;;;;;;;15.68;12.95;;;17.30;99.90;;;;;;5036246;28;20524;-75
2022/10/18 04:17:57;;;;;;;14.10;12.15;;;17.40;99.90;;;;;;5036287;28;20414;-76
2022/10/18 04:20:24;;;;;;;14.73;11.90;;;17.40;99.90;;;;;;5035979;28;20579;-76
2022/10/18 04:22:50;;;;;;;14.80;11.65;;;17.40;99.90;;;;;;5035686;28;20033;-76
2022/10/18 04:25:15;;;;;;;10.05;8.85;;;17.40;99.90;;;;;;5036053;28;20385;-75
2022/10/18 04:27:41;;;;;;;14.07;11.48;;;17.40;99.90;;;;;;5035529;28;20497;-75
2022/10/18 04:30:07;;;;;;;14.02;11.60;;;17.40;99.90;;;;;;5035572;28;20040;-75
2022/10/18 04:32:34;;;;;;;15.25;11.77;;;17.30;99.90;;;;;;5035760;28;20033;-75
2022/10/18 04:35:00;;;;;;;13.27;11.18;;;17.40;99.90;;;;;;5035687;28;20063;-75
2022/10/18 04:37:26;;;;;;;8.77;7.60;;;17.40;99.90;;;;;;5035548;28;20030;-75
2022/10/18 04:39:52;;;;;;;8.75;7.95;;;17.40;99.90;;;;;;5035920;28;20021;-75
2022/10/18 04:42:17;;;;;;;9.80;8.63;;;17.40;99.90;;;;;;5035488;28;20088;-73
2022/10/18 04:44:43;;;;;;;13.65;9.85;;;17.30;99.90;;;;;;5035600;28;20084;-74
2022/10/18 04:47:08;;;;;;;9.05;7.45;;;17.40;99.90;;;;;;5035575;28;20033;-75
2022/10/18 04:49:34;;;;;;;8.15;6.97;;;17.40;99.90;;;;;;5035341;28;20022;-75
2022/10/18 04:52:00;;;;;;;17.77;12.27;;;17.40;99.90;;;;;;5035456;28;20113;-76
2022/10/18 04:54:25;;;;;;;16.75;12.88;;;17.40;99.90;;;;;;5035298;28;20021;-75
2022/10/18 04:56:51;;;;;;;18.40;11.65;;;17.30;99.90;;;;;;5034990;28;20022;-75
2022/10/18 04:59:16;;;;;;;13.55;11.27;;;17.30;99.90;;;;;;5035398;28;20029;-75
2022/10/18 05:01:42;;;;;;;13.65;10.73;;;17.30;99.90;;;;;;5035133;28;20033;-75
2022/10/18 05:04:08;;;;;;;11.10;9.20;;;17.30;99.90;;;;;;5034397;28;20389;-75
2022/10/18 05:06:34;;;;;;;12.38;11.10;;;17.30;99.90;;;;;;5034934;28;20025;-75
2022/10/18 05:09:00;;;;;;;11.20;9.43;;;17.30;99.90;;;;;;5034695;28;20037;-76
2022/10/18 05:11:25;;;;;;;13.43;10.32;;;17.30;99.90;;;;;;5034880;28;20026;-75
2022/10/18 05:13:51;;;;;;;14.57;11.02;;;17.30;99.90;;;;;;5035147;28;20055;-75
2022/10/18 05:16:17;;;;;;;14.30;10.70;;;17.20;99.90;;;;;;5034991;28;20116;-75
2022/10/18 05:18:43;;;;;;;14.20;11.23;;;17.20;99.90;;;;;;5034757;28;20373;-75
2022/10/18 05:21:08;;;;;;;11.60;10.40;;;17.20;99.90;;;;;;5034839;28;20030;-76
2022/10/18 05:23:34;;;;;;;14.07;11.20;;;17.20;99.90;;;;;;5034665;28;20053;-75
2022/10/18 05:26:04;;;;;;;15.63;10.82;;;17.20;99.90;;;;;;5034463;28;20576;-75
2022/10/18 05:28:30;;;;;;;14.95;11.63;;;17.10;99.90;;;;;;5034531;28;20056;-75
2022/10/18 05:31:03;;;;;;;13.48;11.05;;;17.10;99.90;;;;;;5034393;28;20029;-75
2022/10/18 05:33:32;;;;;;;18.77;10.65;;;17.10;99.90;;;;;;5034902;28;20032;-75
2022/10/18 05:35:58;;;;;;;16.52;10.90;;;17.10;99.90;;;;;;5034406;28;20023;-75
2022/10/18 05:38:24;;;;;;;14.27;11.93;;;17.10;99.90;;;;;;5034530;28;20083;-75
2022/10/18 05:40:50;;;;;;;12.07;10.77;;;17.00;99.90;;;;;;5035304;28;20025;-74
2022/10/18 05:43:16;;;;;;;13.77;12.18;;;17.00;99.90;;;;;;5034096;28;20033;-75
2022/10/18 05:45:49;;;;;;;15.43;11.90;;;17.00;99.90;;;;;;5034410;28;20041;-75
2022/10/18 05:48:14;;;;;;;19.40;12.25;;;17.00;99.90;;;;;;5034382;28;20025;-75
2022/10/18 05:50:40;;;;;;;16.67;11.77;;;17.00;99.90;;;;;;5034152;28;20032;-76
2022/10/18 05:53:06;;;;;;;20.10;12.20;;;17.10;99.90;;;;;;5033020;28;20029;-75
2022/10/18 05:55:32;;;;;;;21.63;12.32;;;17.00;99.90;;;;;;5033798;28;20381;-75
2022/10/18 05:57:57;;;;;;;13.20;10.60;;;17.00;99.90;;;;;;5034123;28;20028;-76
2022/10/18 06:00:23;;;;;;;15.40;11.18;;;16.90;99.90;;;;;;5033710;28;20556;-75
2022/10/18 06:02:48;;;;;;;16.08;10.25;;;16.90;99.90;;;;;;5033819;28;20373;-75
2022/10/18 06:05:14;;;;;;;31.40;10.98;;;16.90;99.90;;;;;;5033719;28;20116;-75
2022/10/18 06:07:40;;;;;;;24.30;11.52;;;16.90;99.90;;;;;;5033537;28;20022;-75
2022/10/18 06:10:06;;;;;;;14.27;10.40;;;16.80;99.90;;;;;;5034001;28;20025;-75
2022/10/18 06:12:32;;;;;;;20.88;9.82;;;16.70;99.90;;;;;;5034061;28;20025;-75
2022/10/18 06:14:58;;;;;;;13.77;8.85;;;16.70;99.90;;;;;;5033778;28;20112;-75
2022/10/18 06:17:23;;;;;;;14.38;8.75;;;16.60;99.90;;;;;;5033495;28;20116;-75
2022/10/18 06:19:49;;;;;;;17.95;8.82;;;16.50;99.90;;;;;;5033480;28;20064;-75
2022/10/18 06:22:14;;;;;;;14.38;8.43;;;16.40;99.90;;;;;;5033422;28;20465;-75
2022/10/18 06:24:40;;;;;;;12.52;8.35;;;16.30;99.90;;;;;;5033489;28;20184;-75
2022/10/18 06:27:08;;;;;;;11.05;8.23;;;16.20;99.90;;;;;;5033096;28;20022;-75
2022/10/18 06:29:38;;;;;;;20.75;9.10;;;16.10;99.90;;;;;;5033633;28;20033;-75
2022/10/18 06:32:05;;;;;;;13.82;8.77;;;16.10;99.90;;;;;;5033568;28;20481;-75
2022/10/18 06:34:31;;;;;;;23.50;8.05;;;16.10;99.90;;;;;;5033377;28;20033;-75
2022/10/18 06:36:56;;;;;;;11.80;7.68;;;16.10;99.90;;;;;;5034204;28;20432;-75
2022/10/18 06:39:22;;;;;;;16.60;8.57;;;16.10;99.90;;;;;;5033868;28;20029;-75
2022/10/18 06:41:47;;;;;;;11.93;8.02;;;16.10;99.90;;;;;;5033502;28;20036;-75
2022/10/18 06:44:14;;;;;;;9.05;7.43;;;16.10;99.90;;;;;;5032940;28;20402;-75
2022/10/18 06:46:40;;;;;;;12.27;7.97;;;16.10;99.90;;;;;;5033207;28;20455;-75
2022/10/18 06:49:10;;;;;;;23.33;9.60;;;16.10;99.90;;;;;;5033120;28;20072;-75
2022/10/18 06:51:36;;;;;;;14.43;8.10;;;16.10;99.90;;;;;;5033358;28;20022;-75
2022/10/18 06:54:02;;;;;;;18.67;9.48;;;16.10;99.90;;;;;;5033278;28;20492;-75
2022/10/18 06:56:28;;;;;;;10.65;8.75;;;16.20;99.90;;;;;;5033481;28;20079;-75
2022/10/18 06:58:54;;;;;;;9.02;7.85;;;16.10;99.90;;;;;;5032999;28;20022;-75
2022/10/18 07:01:19;;;;;;;9.65;8.52;;;16.10;99.90;;;;;;5033032;28;20036;-75
2022/10/18 07:03:47;;;;;;;10.15;7.05;;;16.10;99.90;;;;;;5033037;28;20025;-75
2022/10/18 07:06:17;;;;;;;25.38;9.35;;;16.20;99.90;;;;;;5032718;28;20044;-75
2022/10/18 07:08:43;;;;;;;10.10;8.77;;;16.20;99.90;;;;;;5033334;28;20025;-76
2022/10/18 07:11:15;;;;;;;23.15;9.35;;;16.10;99.90;;;;;;5032884;28;20040;-76
2022/10/18 07:13:40;;;;;;;9.02;7.63;;;16.00;99.90;;;;;;5032983;28;20026;-75
2022/10/18 07:16:09;;;;;;;15.60;9.27;;;16.00;99.90;;;;;;5032950;28;20484;-75
2022/10/18 07:18:36;;;;;;;9.98;7.95;;;16.00;99.90;;;;;;5033109;28;20385;-75
2022/10/18 07:21:07;;;;;;;9.80;8.18;;;16.00;99.90;;;;;;5033173;28;20022;-75
2022/10/18 07:23:34;;;;;;;21.98;10.30;;;16.10;99.90;;;;;;5033323;28;20071;-75
2022/10/18 07:26:01;;;;;;;15.40;10.32;;;16.10;99.90;;;;;;5033385;28;20492;-75
2022/10/18 07:28:27;;;;;;;11.10;8.73;;;16.10;99.90;;;;;;5034680;28;20049;-75
2022/10/18 07:30:53;;;;;;;17.45;10.20;;;16.10;99.90;;;;;;5037204;28;20163;-75
2022/10/18 07:33:19;;;;;;;12.88;9.68;;;16.10;99.90;;;;;;5037804;28;20460;-75
2022/10/18 07:35:46;;;;;;;16.92;8.75;;;16.10;99.90;;;;;;5036895;28;20187;-75
2022/10/18 07:38:11;;;;;;;16.83;9.48;;;16.10;99.90;;;;;;5035693;28;20044;-76
2022/10/18 07:40:40;;;;;;;13.13;7.60;;;16.00;99.90;;;;;;5037117;28;20477;-75
2022/10/18 07:43:06;;;;;;;11.27;7.22;;;15.90;99.90;;;;;;5036794;28;20026;-75
2022/10/18 07:45:31;;;;;;;9.20;5.80;;;15.90;99.90;;;;;;5036718;28;20044;-75
2022/10/18 07:48:00;;;;;;;11.13;6.00;;;16.00;99.90;;;;;;5036550;28;20021;-76
2022/10/18 07:50:25;;;;;;;10.85;7.03;;;16.10;99.90;;;;;;5036708;28;20113;-76
2022/10/18 07:52:51;;;;;;;10.57;6.90;;;16.10;99.90;;;;;;5036860;28;20026;-74
2022/10/18 07:55:16;;;;;;;16.60;8.48;;;16.20;99.90;;;;;;5036767;28;20021;-76
2022/10/18 07:57:42;;;;;;;11.55;8.07;;;16.10;99.90;;;;;;5036476;28;20020;-74
2022/10/18 08:00:08;;;;;;;9.90;6.03;;;16.10;99.90;;;;;;5036454;28;20026;-75
2022/10/18 08:02:34;;;;;;;13.48;8.13;;;16.00;99.90;;;;;;5036286;28;20036;-75
2022/10/18 08:05:00;;;;;;;15.15;7.22;;;16.00;99.90;;;;;;5036201;28;20038;-75
2022/10/18 08:07:25;;;;;;;14.50;8.23;;;16.10;99.90;;;;;;5036436;28;20481;-75
2022/10/18 08:09:51;;;;;;;17.13;8.38;;;16.10;99.90;;;;;;5036065;28;20108;-75
2022/10/18 08:12:19;;;;;;;13.68;8.68;;;16.20;99.90;;;;;;5036005;28;20025;-76
2022/10/18 08:14:46;;;;;;;11.70;7.97;;;16.20;99.90;;;;;;5035981;28;20377;-76
2022/10/18 08:17:11;;;;;;;13.30;7.03;;;16.30;99.90;;;;;;5036389;28;20461;-76
2022/10/18 08:19:37;;;;;;;12.05;7.22;;;16.40;99.90;;;;;;5036339;28;20071;-76
2022/10/18 08:22:02;;;;;;;14.05;6.80;;;16.50;99.90;;;;;;5036359;28;20029;-76
2022/10/18 08:24:28;;;;;;;8.43;6.10;;;16.50;99.90;;;;;;5036185;28;20037;-76
2022/10/18 08:26:53;;;;;;;12.20;6.18;;;16.50;99.90;;;;;;5036446;28;20025;-75
2022/10/18 08:29:19;;;;;;;7.60;5.80;;;16.50;99.90;;;;;;5036906;28;20519;-75
2022/10/18 08:31:45;;;;;;;13.57;6.38;;;16.60;99.90;;;;;;5036036;28;20029;-76
2022/10/18 08:34:10;;;;;;;8.45;5.45;;;16.70;99.90;;;;;;5035818;28;20021;-76
2022/10/18 08:36:36;;;;;;;4.03;3.47;;;16.80;99.90;;;;;;5035581;28;20424;-76
2022/10/18 08:39:02;;;;;;;12.48;5.72;;;16.90;99.90;;;;;;5034491;28;20101;-76
2022/10/18 08:41:37;;;;;;;9.85;5.78;;;16.90;99.90;;;;;;5035334;28;20025;-76
2022/10/18 08:44:22;;;;;;;11.57;5.65;;;16.90;99.90;;;;;;5035329;28;20049;-76
2022/10/18 08:46:51;;;;;;;13.10;6.13;;;17.10;99.90;;;;;;5035621;28;20053;-76
2022/10/18 08:49:28;;;;;;;11.02;4.78;;;17.20;99.90;;;;;;5035013;28;20476;-76
2022/10/18 08:51:56;;;;;;;12.88;4.75;;;17.30;99.90;;;;;;5035096;28;20040;-75
2022/10/18 08:54:33;;;;;;;9.85;4.38;;;17.50;99.90;;;;;;5035274;28;20099;-75
2022/10/18 08:57:09;;;;;;;9.93;4.40;;;17.60;99.90;;;;;;5034830;28;20033;-75
2022/10/18 08:59:39;;;;;;;10.20;3.72;;;17.70;99.90;;;;;;5035158;28;20052;-76
2022/10/18 09:02:40;;;;;;;10.68;3.47;;;17.80;99.90;;;;;;5035005;28;20025;-76
2022/10/18 09:05:26;;;;;;;7.90;2.60;;;18.00;99.90;;;;;;5034892;28;20269;-76
2022/10/18 09:07:59;;;;;;;9.30;3.50;;;18.10;99.90;;;;;;5034942;28;20033;-76
2022/10/18 09:11:02;;;;;;;8.25;2.20;;;18.30;99.90;;;;;;5034894;28;20021;-76
2022/10/18 09:13:39;;;;;;;8.85;2.78;;;18.40;99.90;;;;;;5034859;28;20461;-76
2022/10/18 09:16:12;;;;;;;6.28;1.60;;;18.50;99.30;;;;;;5034690;28;20034;-76
2022/10/18 09:18:59;;;;;;;9.25;2.05;;;18.60;99.00;;;;;;5035006;28;20026;-76
2022/10/18 09:21:52;;;;;;;9.25;1.65;;;18.70;98.90;;;;;;5035069;28;20030;-76
2022/10/18 09:24:51;;;;;;;7.00;1.55;;;18.90;98.70;;;;;;5033037;28;20072;-75
2022/10/18 09:27:19;;;;;;;9.05;1.95;;;19.00;98.40;;;;;;5033336;28;20037;-76
2022/10/18 09:29:52;;;;;;;6.75;2.00;;;19.10;96.90;;;;;;5034355;28;20509;-76
2022/10/18 09:32:30;;;;;;;6.18;1.52;;;19.10;97.20;;;;;;5034712;28;20025;-75
2022/10/18 09:35:02;;;;;;;5.50;1.08;;;19.10;96.70;;;;;;5034664;28;20033;-75
2022/10/18 09:37:32;;;;;;;5.63;0.93;;;19.20;96.00;;;;;;5034433;28;20032;-76
2022/10/18 09:40:14;;;;;;;8.18;1.10;;;19.30;95.60;;;;;;5034255;28;20073;-75
2022/10/18 09:42:54;;;;;;;9.30;1.45;;;19.40;95.10;;;;;;5034475;28;20432;-75
2022/10/18 09:45:25;;;;;;;5.68;1.02;;;19.40;94.90;;;;;;5034281;28;20099;-76
2022/10/18 09:48:22;;;;;;;8.77;1.40;;;19.50;94.80;;;;;;5033713;28;20481;-75
2022/10/18 09:50:55;;;;;;;7.72;1.25;;;19.60;93.20;;;;;;5032269;28;20029;-76
2022/10/18 09:53:34;;;;;;;8.73;1.00;;;19.60;92.20;;;;;;5033050;28;20049;-76
2022/10/18 09:56:10;;;;;;;6.72;0.60;;;19.60;91.90;;;;;;5033635;28;20080;-76
2022/10/18 09:58:45;;;;;;;6.50;0.90;;;19.60;92.20;;;;;;5033235;28;20029;-76
2022/10/18 10:01:14;;;;;;;8.68;1.15;;;19.70;92.00;;;;;;5033525;28;20852;-76
2022/10/18 10:03:41;;;;;;;5.55;1.08;;;19.70;92.30;;;;;;5033648;28;20025;-76
2022/10/18 10:06:28;;;;;;;6.22;1.25;;;19.80;92.30;;;;;;5034022;28;20116;-76
2022/10/18 10:09:04;;;;;;;4.57;1.08;;;20.00;92.30;;;;;;5033721;28;20022;-77
2022/10/18 10:11:39;;;;;;;7.18;1.02;;;20.00;92.00;;;;;;5033481;28;20385;-76
2022/10/18 10:14:15;;;;;;;6.25;0.75;;;20.10;91.80;;;;;;5034065;28;20100;-76
2022/10/18 10:16:51;;;;;;;7.22;0.88;;;20.10;92.10;;;;;;5033807;28;20080;-76
2022/10/18 10:19:29;;;;;;;4.38;0.60;;;20.20;91.90;;;;;;5033828;28;20072;-76
2022/10/18 10:22:08;;;;;;;5.32;0.57;;;20.30;91.30;;;;;;5033570;28;20072;-76
2022/10/18 10:25:03;;;;;;;6.03;0.60;;;20.40;91.00;;;;;;5033320;28;20120;-77
2022/10/18 10:27:31;;;;;;;8.15;0.60;;;20.50;90.90;;;;;;5028496;28;20068;-76
2022/10/18 10:30:00;;;;;;;8.70;1.20;;;20.50;89.20;;;;;;5033705;28;20041;-76
2022/10/18 10:32:29;;;;;;;4.80;0.70;;;20.50;88.50;;;;;;5033548;28;20053;-76
2022/10/18 10:34:55;;;;;;;6.00;0.80;;;20.50;87.40;;;;;;5033603;28;20021;-75
2022/10/18 10:37:25;;;;;;;6.43;0.55;;;20.50;86.70;;;;;;5033570;28;20457;-76
2022/10/18 10:40:09;;;;;;;5.40;1.02;;;20.50;86.80;;;;;;5033892;28;20025;-76
2022/10/18 10:42:47;;;;;;;4.78;0.90;;;20.70;87.70;;;;;;5033401;28;20030;-76
2022/10/18 10:45:13;;;;;;;6.40;0.82;;;20.80;87.20;;;;;;5033262;28;20037;-76
2022/10/18 10:47:39;;;;;;;5.65;0.93;;;21.00;87.20;;;;;;5033122;28;20381;-76
2022/10/18 10:50:12;;;;;;;5.28;1.02;;;21.10;86.20;;;;;;5033498;28;20389;-76
2022/10/18 10:52:39;;;;;;;5.65;1.13;;;21.20;85.30;;;;;;5033349;28;20101;-76
2022/10/18 10:55:15;;;;;;;5.72;0.95;;;21.20;84.20;;;;;;5032815;28;20028;-76
2022/10/18 10:57:44;;;;;;;6.57;1.27;;;21.20;83.30;;;;;;5033452;28;20021;-75
2022/10/18 11:00:35;;;;;;;4.50;1.55;;;21.20;81.10;;;;;;5032703;28;20022;-77
2022/10/18 11:03:13;;;;;;;9.15;1.38;;;21.10;80.60;;;;;;5032544;28;20026;-77
2022/10/18 11:05:45;;;;;;;5.82;0.80;;;21.10;80.90;;;;;;5032682;28;20061;-77
2022/10/18 11:08:15;;;;;;;5.70;0.60;;;21.10;80.40;;;;;;5033180;28;20147;-77
2022/10/18 11:10:53;;;;;;;2.90;0.40;;;21.20;81.00;;;;;;5033486;28;20033;-76
2022/10/18 11:13:52;;;;;;;6.45;0.88;;;21.20;80.40;;;;;;5032779;28;20018;-76
2022/10/18 11:16:34;;;;;;;6.90;0.70;;;21.40;79.20;;;;;;5032669;28;20026;-76
2022/10/18 11:19:02;;;;;;;;;;;21.40;79.50;;;;;;5033765;28;20032;-76
2022/10/18 11:21:30;;;;;;;8.30;1.27;;;21.40;77.90;;;;;;5032999;28;19964;-76
2022/10/18 11:23:58;;;;;;;3.45;0.90;;;21.50;79.70;;;;;;5033154;28;20037;-76
2022/10/18 11:26:57;;;;;;;7.93;0.47;;;21.50;81.50;;;;;;5032748;28;20095;-76
2022/10/18 11:29:25;;;;;;;6.75;0.68;;;21.60;79.70;;;;;;5024935;28;20133;-76
2022/10/18 11:32:09;;;;;;;5.45;0.60;;;21.60;78.00;;;;;;5032817;28;20478;-76
2022/10/18 11:34:38;;;;;;;5.90;0.70;;;21.60;74.30;;;;;;5033067;28;20029;-76
2022/10/18 11:37:28;;;;;;;6.43;0.40;;;21.60;74.00;;;;;;5032812;28;20021;-76
2022/10/18 11:40:14;;;;;;;6.53;0.90;;;21.60;75.20;;;;;;5032664;28;20029;-76
2022/10/18 11:43:04;;;;;;;6.88;1.02;;;21.60;75.30;;;;;;5032964;28;20018;-77
2022/10/18 11:45:45;;;;;;;5.47;0.73;;;21.80;75.50;;;;;;5032596;28;20040;-76
2022/10/18 11:48:48;;;;;;;6.53;0.77;;;21.90;72.70;;;;;;5032582;28;20022;-75
2022/10/18 11:51:22;;;;;;;;;;;21.90;71.40;;;;;;5032795;28;20366;-76
2022/10/18 11:54:13;;;;;;;4.55;0.70;;;21.90;72.10;;;;;;5032786;28;19932;-76
2022/10/18 11:57:12;;;;;;;9.10;1.15;;;21.70;70.90;;;;;;5032513;28;20108;-76
2022/10/18 12:00:05;;;;;;;5.05;0.80;;;21.70;72.50;;;;;;5022253;28;20492;-76
2022/10/18 12:02:43;;;;;;;;;;;21.70;71.60;;;;;;5033003;28;20036;-77
2022/10/18 12:05:10;;;;;;;9.35;0.70;;;21.80;72.10;;;;;;5032480;28;19913;-76
2022/10/18 12:07:42;;;;;;;4.35;0.70;;;21.90;72.30;;;;;;5032473;28;20022;-77
2022/10/18 12:10:14;;;;;;;8.27;0.90;;;22.00;73.50;;;;;;5032719;28;20108;-76
2022/10/18 12:12:53;;;;;;;7.77;0.90;;;22.00;70.50;;;;;;5032106;28;20041;-77
2022/10/18 12:15:24;;;;;;;6.57;0.65;;;22.00;72.00;;;;;;5035776;28;20307;-76
2022/10/18 12:17:54;;;;;;;4.70;0.77;;;22.00;73.00;;;;;;5036045;28;20029;-76
2022/10/18 12:20:40;;;;;;;4.00;0.60;;;22.20;71.10;;;;;;5035976;28;20036;-76
2022/10/18 12:23:25;;;;;;;6.18;0.80;;;22.20;73.00;;;;;;5035579;28;20039;-76
2022/10/18 12:25:55;;;;;;;5.38;1.13;;;22.30;71.50;;;;;;5035634;28;20025;-76
2022/10/18 12:28:23;;;;;;;8.25;2.03;;;22.50;71.90;;;;;;5035369;28;20045;-76
2022/10/18 12:30:58;;;;;;;8.35;1.13;;;22.60;71.00;;;;;;5035736;28;20106;-77
2022/10/18 12:33:28;;;;;;;6.68;1.27;;;22.60;70.60;;;;;;5035836;28;20026;-76
2022/10/18 12:36:09;;;;;;;5.57;0.75;;;22.50;71.40;;;;;;5035726;28;20408;-76
2022/10/18 12:38:40;;;;;;;5.57;0.63;;;22.60;70.40;;;;;;5035474;28;20029;-76
2022/10/18 12:41:12;;;;;;;4.77;0.60;;;22.70;67.80;;;;;;5035796;28;20022;-77
2022/10/18 12:43:37;;;;;;;5.72;0.60;;;22.60;66.70;;;;;;5035581;28;20061;-76
2022/10/18 12:46:10;;;;;;;4.93;0.57;;;22.50;67.10;;;;;;5035456;28;20512;-76
2022/10/18 12:48:38;;;;;;;7.05;0.70;;;22.60;67.20;;;;;;5035075;28;20500;-77
2022/10/18 12:51:06;;;;;;;8.05;0.85;;;22.70;67.00;;;;;;5035302;28;20397;-77
2022/10/18 12:53:32;;;;;;;5.63;0.70;;;22.70;65.80;;;;;;5035518;28;20030;-76
2022/10/18 12:56:28;;;;;;;4.43;0.90;;;22.70;66.80;;;;;;5035117;28;20469;-77